DXB weather

Dubai International Airport
Dubai, Dubai Emirate, United Arab Emirates

Public forecast

Using degrees Celsius for public forecast. Weather courtesy of forecast.io.

Current aviation weather report (METAR) for Dubai International Airport

Retrieved 2020/01/23 10:00 UTC (33 minutes ago):

OMDB 231000Z 22010KT 7000 BKN034 26/15 Q1015 NOSIG

Aviation forecast (TAF) for Dubai International Airport

Retrieved 2020/01/23 06:00 UTC (5 hours ago):

TAF OMDB 230501Z 2306/2412 16015KT 8000 NSC BECMG 2310/2312 30012KT PROB30 TEMPO 2312/2406 VRB15G25KT 4000 SHRA FEW040TCU